Portada
METAR-TAF:

METAR-TAF

Aeroports :

Salem-Leckrone Airport

Salem, Illinois, Estats Units d'Amèrica

latitud: 38-38-34N, longitud: 088-57-51W, altitud: 175 m

Observació

L'informe es va fer fa 28 minuts, a les 14:55 UTC
Vent 9 kt del Nord/Nord-Est amb ràfegues de 14 kt
Temperatura 4°C
Humitat 81%
Pressió 1022 hPa
Visibilitat: 16.1 km
Cel cobert a una alçada de 1800 ft

METAR: KSLO 221455Z AUTO 03009G14KT 10SM OVC018 04/01 A3018 RMK AO2 T00420009

Hora: 09:23 (15:23 UTC)


TAF: manca

Observacions i pronòstics meteorològics de més de 4000 aeroports (METAR i TAF).

Les estacions disponibles són els punts grocs i vermells al mapa.

Posi el ratolí al punt desitjat per veure el nom de l'estació.

Feu clic per veure les observacions i els pronòstics meteorològics.

Per canviar el mapa: feu clic els botons verds amb una creu de color negre per apropar; al botó verd amb un guió per allunyar la imatge; o en les fletxes verdes per a mapes adjacents.


METAR-TAF: